Time;durP1;ratioP1;P1;durP2;ratioP2;P2;SDS_P1;SDS_P2;PMS_P1;PMS_P2;Temp;Humidity;BMP_temperature;BMP_pressure;BME280_temperature;BME280_humidity;BME280_pressure;Samples;Min_cycle;Max_cycle;Signal;HPM_P1;HPM_P2
2022/08/06 00:00:10;;;;;;;0.7;0.7;;;;;;;16.5;100.0;102280;;;;
2022/08/06 00:01:00;;;;;;;0.7;0.7;;;;;;;16.5;100.0;102280;;;;
2022/08/06 00:02:00;;;;;;;0.7;0.7;;;;;;;16.5;100.0;102290;;;;
2022/08/06 00:03:00;;;;;;;0.7;0.7;;;;;;;16.5;100.0;102290;;;;
2022/08/06 00:04:00;;;;;;;0.7;0.7;;;;;;;16.4;100.0;102290;;;;
2022/08/06 00:05:00;;;;;;;0.7;0.7;;;;;;;16.4;100.0;102290;;;;
2022/08/06 00:06:00;;;;;;;0.7;0.7;;;;;;;16.4;100.0;102280;;;;
2022/08/06 00:07:00;;;;;;;0.7;0.7;;;;;;;16.4;100.0;102280;;;;
2022/08/06 00:08:02;;;;;;;0.7;0.7;;;;;;;16.2;100.0;102280;;;;
2022/08/06 00:09:00;;;;;;;0.7;0.7;;;;;;;16.2;100.0;102280;;;;
2022/08/06 00:10:02;;;;;;;0.3;0.3;;;;;;;16.4;100.0;102290;;;;
2022/08/06 00:11:00;;;;;;;0.3;0.3;;;;;;;16.4;100.0;102290;;;;
2022/08/06 00:12:01;;;;;;;0.3;0.3;;;;;;;16.2;100.0;102290;;;;
2022/08/06 00:13:05;;;;;;;0.3;0.3;;;;;;;16.2;100.0;102290;;;;
2022/08/06 00:14:03;;;;;;;0.3;0.3;;;;;;;16.3;100.0;102290;;;;
2022/08/06 00:15:01;;;;;;;0.3;0.3;;;;;;;16.3;100.0;102290;;;;
2022/08/06 00:16:10;;;;;;;0.3;0.3;;;;;;;16.3;100.0;102300;;;;
2022/08/06 00:17:00;;;;;;;0.3;0.3;;;;;;;16.3;100.0;102300;;;;
2022/08/06 00:18:00;;;;;;;0.3;0.3;;;;;;;16.2;100.0;102300;;;;
2022/08/06 00:19:00;;;;;;;0.3;0.3;;;;;;;16.2;100.0;102300;;;;
2022/08/06 00:20:01;;;;;;;0.3;0.3;;;;;;;16.2;100.0;102300;;;;
2022/08/06 00:21:00;;;;;;;0.3;0.3;;;;;;;16.2;100.0;102300;;;;
2022/08/06 00:22:00;;;;;;;0.3;0.3;;;;;;;16.1;100.0;102300;;;;
2022/08/06 00:23:01;;;;;;;0.3;0.3;;;;;;;16.1;100.0;102300;;;;
2022/08/06 00:24:01;;;;;;;0.3;0.3;;;;;;;16.1;100.0;102300;;;;
2022/08/06 00:25:00;;;;;;;0.3;0.3;;;;;;;16.1;100.0;102300;;;;
2022/08/06 00:26:01;;;;;;;0.3;0.3;;;;;;;16.1;100.0;102310;;;;
2022/08/06 00:27:10;;;;;;;0.3;0.3;;;;;;;16.1;100.0;102310;;;;
2022/08/06 00:28:00;;;;;;;0.3;0.3;;;;;;;16.1;100.0;102310;;;;
2022/08/06 00:29:00;;;;;;;0.3;0.3;;;;;;;16.1;100.0;102310;;;;
2022/08/06 00:30:06;;;;;;;0.4;0.4;;;;;;;16.0;100.0;102310;;;;
2022/08/06 00:31:07;;;;;;;0.4;0.4;;;;;;;16.0;100.0;102310;;;;
2022/08/06 00:32:02;;;;;;;0.4;0.4;;;;;;;16.0;100.0;102310;;;;
2022/08/06 00:33:00;;;;;;;0.4;0.4;;;;;;;16.0;100.0;102310;;;;
2022/08/06 00:34:03;;;;;;;0.4;0.4;;;;;;;15.9;100.0;102310;;;;
2022/08/06 00:35:00;;;;;;;0.4;0.4;;;;;;;15.9;100.0;102310;;;;
2022/08/06 00:36:00;;;;;;;0.4;0.4;;;;;;;15.9;100.0;102320;;;;
2022/08/06 00:37:00;;;;;;;0.4;0.4;;;;;;;15.9;100.0;102320;;;;
2022/08/06 00:38:00;;;;;;;0.4;0.4;;;;;;;15.9;100.0;102320;;;;
2022/08/06 00:39:09;;;;;;;0.4;0.4;;;;;;;15.9;100.0;102320;;;;
2022/08/06 00:40:00;;;;;;;0.4;0.4;;;;;;;15.9;100.0;102320;;;;
2022/08/06 00:41:01;;;;;;;0.4;0.4;;;;;;;15.9;100.0;102320;;;;
2022/08/06 00:42:00;;;;;;;0.4;0.4;;;;;;;15.8;100.0;102320;;;;
2022/08/06 00:43:09;;;;;;;0.4;0.4;;;;;;;15.8;100.0;102320;;;;
2022/08/06 00:44:04;;;;;;;0.4;0.4;;;;;;;15.7;100.0;102320;;;;
2022/08/06 00:45:01;;;;;;;0.4;0.4;;;;;;;15.7;100.0;102320;;;;
2022/08/06 00:46:00;;;;;;;0.4;0.4;;;;;;;15.7;100.0;102320;;;;
2022/08/06 00:47:00;;;;;;;0.4;0.4;;;;;;;15.7;100.0;102320;;;;
2022/08/06 00:48:03;;;;;;;0.4;0.4;;;;;;;15.7;100.0;102320;;;;
2022/08/06 00:49:10;;;;;;;0.4;0.4;;;;;;;15.7;100.0;102320;;;;
2022/08/06 00:50:02;;;;;;;0.3;0.3;;;;;;;15.7;100.0;102330;;;;
2022/08/06 00:51:01;;;;;;;0.3;0.3;;;;;;;15.7;100.0;102330;;;;
2022/08/06 00:52:00;;;;;;;0.3;0.3;;;;;;;15.6;100.0;102330;;;;
2022/08/06 00:53:01;;;;;;;0.3;0.3;;;;;;;15.6;100.0;102330;;;;
2022/08/06 00:54:01;;;;;;;0.3;0.3;;;;;;;15.6;100.0;102320;;;;
2022/08/06 00:55:00;;;;;;;0.3;0.3;;;;;;;15.6;100.0;102320;;;;
2022/08/06 00:56:08;;;;;;;0.3;0.3;;;;;;;15.5;100.0;102330;;;;
2022/08/06 00:57:00;;;;;;;0.3;0.3;;;;;;;15.5;100.0;102330;;;;
2022/08/06 00:58:00;;;;;;;0.3;0.3;;;;;;;15.5;100.0;102320;;;;
2022/08/06 00:59:03;;;;;;;0.3;0.3;;;;;;;15.5;100.0;102320;;;;
2022/08/06 01:00:01;;;;;;;0.3;0.3;;;;;;;15.4;100.0;102330;;;;
2022/08/06 01:01:00;;;;;;;0.3;0.3;;;;;;;15.4;100.0;102330;;;;
2022/08/06 01:02:00;;;;;;;0.3;0.3;;;;;;;15.4;100.0;102330;;;;
2022/08/06 01:03:00;;;;;;;0.3;0.3;;;;;;;15.4;100.0;102330;;;;
2022/08/06 01:04:00;;;;;;;0.3;0.3;;;;;;;15.5;100.0;102330;;;;
2022/08/06 01:05:10;;;;;;;0.3;0.3;;;;;;;15.5;100.0;102330;;;;
2022/08/06 01:06:10;;;;;;;0.3;0.3;;;;;;;15.5;100.0;102330;;;;
2022/08/06 01:07:00;;;;;;;0.3;0.3;;;;;;;15.5;100.0;102330;;;;
2022/08/06 01:08:02;;;;;;;0.3;0.3;;;;;;;15.5;100.0;102330;;;;
2022/08/06 01:09:00;;;;;;;0.3;0.3;;;;;;;15.5;100.0;102330;;;;
2022/08/06 01:10:00;;;;;;;0.4;0.4;;;;;;;15.3;100.0;102330;;;;
2022/08/06 01:11:00;;;;;;;0.4;0.4;;;;;;;15.3;100.0;102330;;;;
2022/08/06 01:12:03;;;;;;;0.4;0.4;;;;;;;15.3;100.0;102340;;;;
2022/08/06 01:13:04;;;;;;;0.4;0.4;;;;;;;15.3;100.0;102340;;;;
2022/08/06 01:14:04;;;;;;;0.4;0.4;;;;;;;15.2;100.0;102340;;;;
2022/08/06 01:15:05;;;;;;;0.4;0.4;;;;;;;15.2;100.0;102340;;;;
2022/08/06 01:16:10;;;;;;;0.4;0.4;;;;;;;15.2;100.0;102340;;;;
2022/08/06 01:17:12;;;;;;;0.4;0.4;;;;;;;15.2;100.0;102340;;;;
2022/08/06 01:18:09;;;;;;;0.4;0.4;;;;;;;15.2;100.0;102340;;;;
2022/08/06 01:19:00;;;;;;;0.4;0.4;;;;;;;15.2;100.0;102340;;;;
2022/08/06 01:20:17;;;;;;;0.4;0.4;;;;;;;15.3;100.0;102340;;;;
2022/08/06 01:21:19;;;;;;;0.4;0.4;;;;;;;15.3;100.0;102340;;;;
2022/08/06 01:22:20;;;;;;;0.4;0.4;;;;;;;15.3;100.0;102350;;;;
2022/08/06 01:23:03;;;;;;;0.4;0.4;;;;;;;15.3;100.0;102350;;;;
2022/08/06 01:24:13;;;;;;;0.4;0.4;;;;;;;15.3;100.0;102350;;;;
2022/08/06 01:25:11;;;;;;;0.4;0.4;;;;;;;15.3;100.0;102350;;;;
2022/08/06 01:26:10;;;;;;;0.4;0.4;;;;;;;15.2;100.0;102350;;;;
2022/08/06 01:27:11;;;;;;;0.4;0.4;;;;;;;15.2;100.0;102350;;;;
2022/08/06 01:28:10;;;;;;;0.4;0.4;;;;;;;15.2;100.0;102350;;;;
2022/08/06 01:29:15;;;;;;;0.4;0.4;;;;;;;15.2;100.0;102350;;;;
2022/08/06 01:30:03;;;;;;;0.4;0.4;;;;;;;15.3;100.0;102350;;;;
2022/08/06 01:31:10;;;;;;;0.4;0.4;;;;;;;15.3;100.0;102350;;;;
2022/08/06 01:32:06;;;;;;;0.4;0.4;;;;;;;15.3;100.0;102350;;;;
2022/08/06 01:33:10;;;;;;;0.4;0.4;;;;;;;15.3;100.0;102350;;;;
2022/08/06 01:34:04;;;;;;;0.4;0.4;;;;;;;15.3;100.0;102360;;;;
2022/08/06 01:35:16;;;;;;;0.4;0.4;;;;;;;15.3;100.0;102360;;;;
2022/08/06 01:36:03;;;;;;;0.4;0.4;;;;;;;15.2;100.0;102360;;;;
2022/08/06 01:37:10;;;;;;;0.4;0.4;;;;;;;15.2;100.0;102360;;;;
2022/08/06 01:38:04;;;;;;;0.4;0.4;;;;;;;15.2;100.0;102360;;;;
2022/08/06 01:39:01;;;;;;;0.4;0.4;;;;;;;15.2;100.0;102360;;;;
2022/08/06 01:40:04;;;;;;;0.4;0.4;;;;;;;15.2;100.0;102360;;;;
2022/08/06 01:41:02;;;;;;;0.4;0.4;;;;;;;15.2;100.0;102360;;;;
2022/08/06 01:42:02;;;;;;;0.4;0.4;;;;;;;15.2;100.0;102360;;;;
2022/08/06 01:43:01;;;;;;;0.4;0.4;;;;;;;15.2;100.0;102360;;;;
2022/08/06 01:44:08;;;;;;;0.4;0.4;;;;;;;15.1;100.0;102360;;;;
2022/08/06 01:45:01;;;;;;;0.4;0.4;;;;;;;15.1;100.0;102360;;;;
2022/08/06 01:46:01;;;;;;;0.4;0.4;;;;;;;15.1;100.0;102360;;;;
2022/08/06 01:47:05;;;;;;;0.4;0.4;;;;;;;15.1;100.0;102360;;;;
2022/08/06 01:48:05;;;;;;;0.4;0.4;;;;;;;15.0;100.0;102360;;;;
2022/08/06 01:49:10;;;;;;;0.4;0.4;;;;;;;15.0;100.0;102360;;;;
2022/08/06 01:50:05;;;;;;;0.6;0.6;;;;;;;15.1;100.0;102360;;;;
2022/08/06 01:51:03;;;;;;;0.6;0.6;;;;;;;15.1;100.0;102360;;;;
2022/08/06 01:52:11;;;;;;;0.6;0.6;;;;;;;15.0;100.0;102360;;;;
2022/08/06 01:53:01;;;;;;;0.6;0.6;;;;;;;15.0;100.0;102360;;;;
2022/08/06 01:54:08;;;;;;;0.6;0.6;;;;;;;15.0;100.0;102360;;;;
2022/08/06 01:55:00;;;;;;;0.6;0.6;;;;;;;15.0;100.0;102360;;;;
2022/08/06 01:56:09;;;;;;;0.6;0.6;;;;;;;15.1;100.0;102360;;;;
2022/08/06 01:57:00;;;;;;;0.6;0.6;;;;;;;15.1;100.0;102360;;;;
2022/08/06 01:58:12;;;;;;;0.6;0.6;;;;;;;15.0;100.0;102360;;;;
2022/08/06 01:59:09;;;;;;;0.6;0.6;;;;;;;15.0;100.0;102360;;;;
2022/08/06 02:00:01;;;;;;;0.6;0.6;;;;;;;15.0;100.0;102370;;;;
2022/08/06 02:01:04;;;;;;;0.6;0.6;;;;;;;15.0;100.0;102370;;;;
2022/08/06 02:02:05;;;;;;;0.6;0.6;;;;;;;14.9;100.0;102360;;;;
2022/08/06 02:03:04;;;;;;;0.6;0.6;;;;;;;14.9;100.0;102360;;;;
2022/08/06 02:04:01;;;;;;;0.6;0.6;;;;;;;15.0;100.0;102360;;;;
2022/08/06 02:05:09;;;;;;;0.6;0.6;;;;;;;15.0;100.0;102360;;;;
2022/08/06 02:06:00;;;;;;;0.6;0.6;;;;;;;14.9;100.0;102360;;;;
2022/08/06 02:07:12;;;;;;;0.6;0.6;;;;;;;14.9;100.0;102360;;;;
2022/08/06 02:08:11;;;;;;;0.6;0.6;;;;;;;15.0;100.0;102360;;;;
2022/08/06 02:09:12;;;;;;;0.6;0.6;;;;;;;15.0;100.0;102360;;;;
2022/08/06 02:10:03;;;;;;;0.4;0.4;;;;;;;15.0;100.0;102360;;;;
2022/08/06 02:11:11;;;;;;;0.4;0.4;;;;;;;15.0;100.0;102360;;;;
2022/08/06 02:12:07;;;;;;;0.4;0.4;;;;;;;14.8;100.0;102360;;;;
2022/08/06 02:13:03;;;;;;;0.4;0.4;;;;;;;14.8;100.0;102360;;;;
2022/08/06 02:14:01;;;;;;;0.4;0.4;;;;;;;14.8;100.0;102360;;;;
2022/08/06 02:15:07;;;;;;;0.4;0.4;;;;;;;14.8;100.0;102360;;;;
2022/08/06 02:16:02;;;;;;;0.4;0.4;;;;;;;14.9;100.0;102360;;;;
2022/08/06 02:17:11;;;;;;;0.4;0.4;;;;;;;14.9;100.0;102360;;;;
2022/08/06 02:18:07;;;;;;;0.4;0.4;;;;;;;14.9;100.0;102360;;;;
2022/08/06 02:19:12;;;;;;;0.4;0.4;;;;;;;14.9;100.0;102360;;;;
2022/08/06 02:20:11;;;;;;;0.4;0.4;;;;;;;14.8;100.0;102360;;;;
2022/08/06 02:21:12;;;;;;;0.4;0.4;;;;;;;14.8;100.0;102360;;;;
2022/08/06 02:22:05;;;;;;;0.4;0.4;;;;;;;14.8;100.0;102360;;;;
2022/08/06 02:23:03;;;;;;;0.4;0.4;;;;;;;14.8;100.0;102360;;;;
2022/08/06 02:24:02;;;;;;;0.4;0.4;;;;;;;14.8;100.0;102360;;;;
2022/08/06 02:25:02;;;;;;;0.4;0.4;;;;;;;14.8;100.0;102360;;;;
2022/08/06 02:26:02;;;;;;;0.4;0.4;;;;;;;14.7;100.0;102360;;;;
2022/08/06 02:27:01;;;;;;;0.4;0.4;;;;;;;14.7;100.0;102360;;;;
2022/08/06 02:28:00;;;;;;;0.4;0.4;;;;;;;14.8;100.0;102370;;;;
2022/08/06 02:29:01;;;;;;;0.4;0.4;;;;;;;14.8;100.0;102370;;;;
2022/08/06 02:30:07;;;;;;;0.4;0.4;;;;;;;14.8;100.0;102370;;;;
2022/08/06 02:31:01;;;;;;;0.4;0.4;;;;;;;14.8;100.0;102370;;;;
2022/08/06 02:32:02;;;;;;;0.4;0.4;;;;;;;14.8;100.0;102360;;;;
2022/08/06 02:33:03;;;;;;;0.4;0.4;;;;;;;14.8;100.0;102360;;;;
2022/08/06 02:34:03;;;;;;;0.4;0.4;;;;;;;14.8;100.0;102370;;;;
2022/08/06 02:35:01;;;;;;;0.4;0.4;;;;;;;14.8;100.0;102370;;;;
2022/08/06 02:36:14;;;;;;;0.4;0.4;;;;;;;14.8;100.0;102370;;;;
2022/08/06 02:37:06;;;;;;;0.4;0.4;;;;;;;14.8;100.0;102370;;;;
2022/08/06 02:38:09;;;;;;;0.4;0.4;;;;;;;14.7;100.0;102370;;;;
2022/08/06 02:39:04;;;;;;;0.4;0.4;;;;;;;14.7;100.0;102370;;;;
2022/08/06 02:40:07;;;;;;;0.4;0.4;;;;;;;14.7;100.0;102370;;;;
2022/08/06 02:41:11;;;;;;;0.4;0.4;;;;;;;14.7;100.0;102370;;;;
2022/08/06 02:42:05;;;;;;;0.4;0.4;;;;;;;14.6;100.0;102370;;;;
2022/08/06 02:43:06;;;;;;;0.4;0.4;;;;;;;14.6;100.0;102370;;;;
2022/08/06 02:44:07;;;;;;;0.4;0.4;;;;;;;14.7;100.0;102370;;;;
2022/08/06 02:45:00;;;;;;;0.4;0.4;;;;;;;14.7;100.0;102370;;;;
2022/08/06 02:46:11;;;;;;;0.4;0.4;;;;;;;14.6;100.0;102370;;;;
2022/08/06 02:47:18;;;;;;;0.4;0.4;;;;;;;14.6;100.0;102370;;;;
2022/08/06 02:48:03;;;;;;;0.4;0.4;;;;;;;14.6;100.0;102370;;;;
2022/08/06 02:49:03;;;;;;;0.4;0.4;;;;;;;14.6;100.0;102370;;;;
2022/08/06 02:50:02;;;;;;;1.4;1.4;;;;;;;14.7;100.0;102370;;;;
2022/08/06 02:51:15;;;;;;;1.4;1.4;;;;;;;14.7;100.0;102370;;;;
2022/08/06 02:52:14;;;;;;;1.4;1.4;;;;;;;14.6;100.0;102370;;;;
2022/08/06 02:53:08;;;;;;;1.4;1.4;;;;;;;14.6;100.0;102370;;;;
2022/08/06 02:54:07;;;;;;;1.4;1.4;;;;;;;14.6;100.0;102370;;;;
2022/08/06 02:55:07;;;;;;;1.4;1.4;;;;;;;14.6;100.0;102370;;;;
2022/08/06 02:56:04;;;;;;;1.4;1.4;;;;;;;14.6;100.0;102370;;;;
2022/08/06 02:57:03;;;;;;;1.4;1.4;;;;;;;14.6;100.0;102370;;;;
2022/08/06 02:58:07;;;;;;;1.4;1.4;;;;;;;14.6;100.0;102370;;;;
2022/08/06 02:59:02;;;;;;;1.4;1.4;;;;;;;14.6;100.0;102370;;;;
2022/08/06 03:00:05;;;;;;;1.4;1.4;;;;;;;14.5;100.0;102370;;;;
2022/08/06 03:01:09;;;;;;;1.4;1.4;;;;;;;14.5;100.0;102370;;;;
2022/08/06 03:02:05;;;;;;;1.4;1.4;;;;;;;14.5;100.0;102370;;;;
2022/08/06 03:03:01;;;;;;;1.4;1.4;;;;;;;14.5;100.0;102370;;;;
2022/08/06 03:04:03;;;;;;;1.4;1.4;;;;;;;14.5;100.0;102370;;;;
2022/08/06 03:05:02;;;;;;;1.4;1.4;;;;;;;14.5;100.0;102370;;;;
2022/08/06 03:06:00;;;;;;;1.4;1.4;;;;;;;14.5;100.0;102380;;;;
2022/08/06 03:07:06;;;;;;;1.4;1.4;;;;;;;14.5;100.0;102380;;;;
2022/08/06 03:08:01;;;;;;;1.4;1.4;;;;;;;14.5;100.0;102380;;;;
2022/08/06 03:09:02;;;;;;;1.4;1.4;;;;;;;14.5;100.0;102380;;;;
2022/08/06 03:10:00;;;;;;;0.8;0.8;;;;;;;14.5;100.0;102380;;;;
2022/08/06 03:11:01;;;;;;;0.8;0.8;;;;;;;14.5;100.0;102380;;;;
2022/08/06 03:12:02;;;;;;;0.8;0.8;;;;;;;14.4;100.0;102380;;;;
2022/08/06 03:13:05;;;;;;;0.8;0.8;;;;;;;14.4;100.0;102380;;;;
2022/08/06 03:14:01;;;;;;;0.8;0.8;;;;;;;14.3;100.0;102380;;;;
2022/08/06 03:15:11;;;;;;;0.8;0.8;;;;;;;14.3;100.0;102380;;;;
2022/08/06 03:16:01;;;;;;;0.8;0.8;;;;;;;14.3;100.0;102380;;;;
2022/08/06 03:17:00;;;;;;;0.8;0.8;;;;;;;14.3;100.0;102380;;;;
2022/08/06 03:18:04;;;;;;;0.8;0.8;;;;;;;14.3;100.0;102380;;;;
2022/08/06 03:19:10;;;;;;;0.8;0.8;;;;;;;14.3;100.0;102380;;;;
2022/08/06 03:20:01;;;;;;;0.8;0.8;;;;;;;14.3;100.0;102380;;;;
2022/08/06 03:21:01;;;;;;;0.8;0.8;;;;;;;14.3;100.0;102380;;;;
2022/08/06 03:22:01;;;;;;;0.8;0.8;;;;;;;14.2;100.0;102380;;;;
2022/08/06 03:23:01;;;;;;;0.8;0.8;;;;;;;14.2;100.0;102380;;;;
2022/08/06 03:24:01;;;;;;;0.8;0.8;;;;;;;14.3;100.0;102380;;;;
2022/08/06 03:25:03;;;;;;;0.8;0.8;;;;;;;14.3;100.0;102380;;;;
2022/08/06 03:26:05;;;;;;;0.8;0.8;;;;;;;14.2;100.0;102380;;;;
2022/08/06 03:27:02;;;;;;;0.8;0.8;;;;;;;14.2;100.0;102380;;;;
2022/08/06 03:28:02;;;;;;;0.8;0.8;;;;;;;14.3;100.0;102390;;;;
2022/08/06 03:29:01;;;;;;;0.8;0.8;;;;;;;14.3;100.0;102390;;;;
2022/08/06 03:30:02;;;;;;;0.6;0.6;;;;;;;14.2;100.0;102390;;;;
2022/08/06 03:31:04;;;;;;;0.6;0.6;;;;;;;14.2;100.0;102390;;;;
2022/08/06 03:32:11;;;;;;;0.6;0.6;;;;;;;14.3;100.0;102390;;;;
2022/08/06 03:33:12;;;;;;;0.6;0.6;;;;;;;14.3;100.0;102390;;;;
2022/08/06 03:34:05;;;;;;;0.6;0.6;;;;;;;14.3;100.0;102390;;;;
2022/08/06 03:35:04;;;;;;;0.6;0.6;;;;;;;14.3;100.0;102390;;;;
2022/08/06 03:36:01;;;;;;;0.6;0.6;;;;;;;14.2;100.0;102390;;;;
2022/08/06 03:37:01;;;;;;;0.6;0.6;;;;;;;14.2;100.0;102390;;;;
2022/08/06 03:38:02;;;;;;;0.6;0.6;;;;;;;14.2;100.0;102390;;;;
2022/08/06 03:39:03;;;;;;;0.6;0.6;;;;;;;14.2;100.0;102390;;;;
2022/08/06 03:40:02;;;;;;;0.6;0.6;;;;;;;14.2;100.0;102390;;;;
2022/08/06 03:41:01;;;;;;;0.6;0.6;;;;;;;14.2;100.0;102390;;;;
2022/08/06 03:42:09;;;;;;;0.6;0.6;;;;;;;14.2;100.0;102390;;;;
2022/08/06 03:43:00;;;;;;;0.6;0.6;;;;;;;14.2;100.0;102390;;;;
2022/08/06 03:44:04;;;;;;;0.6;0.6;;;;;;;14.1;100.0;102390;;;;
2022/08/06 03:45:00;;;;;;;0.6;0.6;;;;;;;14.1;100.0;102390;;;;
2022/08/06 03:46:03;;;;;;;0.6;0.6;;;;;;;14.1;100.0;102390;;;;
2022/08/06 03:47:00;;;;;;;0.6;0.6;;;;;;;14.1;100.0;102390;;;;
2022/08/06 03:48:08;;;;;;;0.6;0.6;;;;;;;14.1;100.0;102390;;;;
2022/08/06 03:49:04;;;;;;;0.4;0.4;;;;;;;14.1;100.0;102390;;;;
2022/08/06 03:50:06;;;;;;;0.4;0.4;;;;;;;14.1;100.0;102400;;;;
2022/08/06 03:51:07;;;;;;;0.4;0.4;;;;;;;14.1;100.0;102400;;;;
2022/08/06 03:52:00;;;;;;;0.4;0.4;;;;;;;14.2;100.0;102390;;;;
2022/08/06 03:53:03;;;;;;;0.4;0.4;;;;;;;14.2;100.0;102390;;;;
2022/08/06 03:54:01;;;;;;;0.4;0.4;;;;;;;14.1;100.0;102400;;;;
2022/08/06 03:55:05;;;;;;;0.4;0.4;;;;;;;14.1;100.0;102400;;;;
2022/08/06 03:56:02;;;;;;;0.4;0.4;;;;;;;14.1;100.0;102390;;;;
2022/08/06 03:57:10;;;;;;;0.4;0.4;;;;;;;14.1;100.0;102390;;;;
2022/08/06 03:58:03;;;;;;;0.4;0.4;;;;;;;14.0;100.0;102390;;;;
2022/08/06 03:59:05;;;;;;;0.4;0.4;;;;;;;14.0;100.0;102390;;;;
2022/08/06 04:00:02;;;;;;;0.4;0.4;;;;;;;14.0;100.0;102400;;;;
2022/08/06 04:01:04;;;;;;;0.4;0.4;;;;;;;14.0;100.0;102400;;;;
2022/08/06 04:02:01;;;;;;;0.4;0.4;;;;;;;13.9;100.0;102400;;;;
2022/08/06 04:03:04;;;;;;;0.4;0.4;;;;;;;13.9;100.0;102400;;;;
2022/08/06 04:04:11;;;;;;;0.4;0.4;;;;;;;13.9;100.0;102410;;;;
2022/08/06 04:05:01;;;;;;;0.4;0.4;;;;;;;13.9;100.0;102410;;;;
2022/08/06 04:06:01;;;;;;;0.4;0.4;;;;;;;13.9;100.0;102410;;;;
2022/08/06 04:07:02;;;;;;;0.4;0.4;;;;;;;13.9;100.0;102410;;;;
2022/08/06 04:08:05;;;;;;;0.4;0.4;;;;;;;14.0;100.0;102420;;;;
2022/08/06 04:09:00;;;;;;;0.6;0.6;;;;;;;14.0;100.0;102420;;;;
2022/08/06 04:10:01;;;;;;;0.6;0.6;;;;;;;13.9;100.0;102420;;;;
2022/08/06 04:11:00;;;;;;;0.6;0.6;;;;;;;13.9;100.0;102420;;;;
2022/08/06 04:12:11;;;;;;;0.6;0.6;;;;;;;14.0;100.0;102420;;;;
2022/08/06 04:13:11;;;;;;;0.6;0.6;;;;;;;14.0;100.0;102420;;;;
2022/08/06 04:14:08;;;;;;;0.6;0.6;;;;;;;13.9;100.0;102420;;;;
2022/08/06 04:15:05;;;;;;;0.6;0.6;;;;;;;13.9;100.0;102420;;;;
2022/08/06 04:16:02;;;;;;;0.6;0.6;;;;;;;13.9;100.0;102420;;;;
2022/08/06 04:17:01;;;;;;;0.6;0.6;;;;;;;13.9;100.0;102420;;;;
2022/08/06 04:18:03;;;;;;;0.6;0.6;;;;;;;13.9;100.0;102420;;;;
2022/08/06 04:19:00;;;;;;;0.6;0.6;;;;;;;13.9;100.0;102420;;;;
2022/08/06 04:20:00;;;;;;;0.6;0.6;;;;;;;13.9;100.0;102420;;;;
2022/08/06 04:21:12;;;;;;;0.6;0.6;;;;;;;13.9;100.0;102420;;;;
2022/08/06 04:22:10;;;;;;;0.6;0.6;;;;;;;13.9;100.0;102420;;;;
2022/08/06 04:23:10;;;;;;;0.6;0.6;;;;;;;13.9;100.0;102420;;;;
2022/08/06 04:24:01;;;;;;;0.6;0.6;;;;;;;13.9;100.0;102430;;;;
2022/08/06 04:25:02;;;;;;;0.6;0.6;;;;;;;13.9;100.0;102430;;;;
2022/08/06 04:26:03;;;;;;;0.6;0.6;;;;;;;13.9;100.0;102430;;;;
2022/08/06 04:27:09;;;;;;;0.6;0.6;;;;;;;13.9;100.0;102430;;;;
2022/08/06 04:28:01;;;;;;;0.6;0.6;;;;;;;13.9;100.0;102430;;;;
2022/08/06 04:29:01;;;;;;;0.6;0.6;;;;;;;13.9;100.0;102430;;;;
2022/08/06 04:30:03;;;;;;;0.6;0.6;;;;;;;13.8;100.0;102430;;;;
2022/08/06 04:31:01;;;;;;;0.6;0.6;;;;;;;13.8;100.0;102430;;;;
2022/08/06 04:32:11;;;;;;;0.6;0.6;;;;;;;13.9;100.0;102430;;;;
2022/08/06 04:33:02;;;;;;;0.6;0.6;;;;;;;13.9;100.0;102430;;;;
2022/08/06 04:34:01;;;;;;;0.6;0.6;;;;;;;13.8;100.0;102430;;;;
2022/08/06 04:35:11;;;;;;;0.6;0.6;;;;;;;13.8;100.0;102430;;;;
2022/08/06 04:36:11;;;;;;;0.6;0.6;;;;;;;13.8;100.0;102440;;;;
2022/08/06 04:37:01;;;;;;;0.6;0.6;;;;;;;13.8;100.0;102440;;;;
2022/08/06 04:38:01;;;;;;;0.6;0.6;;;;;;;13.8;100.0;102440;;;;
2022/08/06 04:39:00;;;;;;;0.6;0.6;;;;;;;13.8;100.0;102440;;;;
2022/08/06 04:40:00;;;;;;;0.6;0.6;;;;;;;13.8;100.0;102440;;;;
2022/08/06 04:41:09;;;;;;;0.6;0.6;;;;;;;13.8;100.0;102440;;;;
2022/08/06 04:42:06;;;;;;;0.6;0.6;;;;;;;13.8;100.0;102440;;;;
2022/08/06 04:43:01;;;;;;;0.6;0.6;;;;;;;13.8;100.0;102440;;;;
2022/08/06 04:44:02;;;;;;;0.6;0.6;;;;;;;13.8;100.0;102440;;;;
2022/08/06 04:45:00;;;;;;;0.6;0.6;;;;;;;13.8;100.0;102440;;;;
2022/08/06 04:46:11;;;;;;;0.6;0.6;;;;;;;13.9;100.0;102440;;;;
2022/08/06 04:47:01;;;;;;;0.6;0.6;;;;;;;13.9;100.0;102440;;;;
2022/08/06 04:48:03;;;;;;;0.6;0.6;;;;;;;13.8;100.0;102440;;;;
2022/08/06 04:49:01;;;;;;;0.5;0.5;;;;;;;13.8;100.0;102440;;;;
2022/08/06 04:50:07;;;;;;;0.5;0.5;;;;;;;13.9;100.0;102450;;;;
2022/08/06 04:51:02;;;;;;;0.5;0.5;;;;;;;13.9;100.0;102450;;;;
2022/08/06 04:52:10;;;;;;;0.5;0.5;;;;;;;13.8;100.0;102450;;;;
2022/08/06 04:53:08;;;;;;;0.5;0.5;;;;;;;13.8;100.0;102450;;;;
2022/08/06 04:54:04;;;;;;;0.5;0.5;;;;;;;13.7;100.0;102450;;;;
2022/08/06 04:55:00;;;;;;;0.5;0.5;;;;;;;13.7;100.0;102450;;;;
2022/08/06 04:56:04;;;;;;;0.5;0.5;;;;;;;13.9;100.0;102450;;;;
2022/08/06 04:57:10;;;;;;;0.5;0.5;;;;;;;13.9;100.0;102450;;;;
2022/08/06 04:58:11;;;;;;;0.5;0.5;;;;;;;13.9;100.0;102450;;;;
2022/08/06 04:59:00;;;;;;;0.5;0.5;;;;;;;13.9;100.0;102450;;;;
2022/08/06 05:00:00;;;;;;;0.5;0.5;;;;;;;13.9;100.0;102460;;;;
2022/08/06 05:01:10;;;;;;;0.5;0.5;;;;;;;13.9;100.0;102460;;;;
2022/08/06 05:02:01;;;;;;;0.5;0.5;;;;;;;13.9;100.0;102460;;;;
2022/08/06 05:03:00;;;;;;;0.5;0.5;;;;;;;13.9;100.0;102460;;;;
2022/08/06 05:04:07;;;;;;;0.5;0.5;;;;;;;13.9;100.0;102460;;;;
2022/08/06 05:05:01;;;;;;;0.5;0.5;;;;;;;13.9;100.0;102460;;;;
2022/08/06 05:06:13;;;;;;;0.5;0.5;;;;;;;14.0;100.0;102460;;;;
2022/08/06 05:07:11;;;;;;;0.5;0.5;;;;;;;14.0;100.0;102460;;;;
2022/08/06 05:08:01;;;;;;;0.5;0.5;;;;;;;14.0;100.0;102450;;;;
2022/08/06 05:09:07;;;;;;;0.6;0.6;;;;;;;14.0;100.0;102450;;;;
2022/08/06 05:10:00;;;;;;;0.6;0.6;;;;;;;14.1;100.0;102460;;;;
2022/08/06 05:11:01;;;;;;;0.6;0.6;;;;;;;14.1;100.0;102460;;;;
2022/08/06 05:12:04;;;;;;;0.6;0.6;;;;;;;14.0;100.0;102460;;;;
2022/08/06 05:13:07;;;;;;;0.6;0.6;;;;;;;14.0;100.0;102460;;;;
2022/08/06 05:14:08;;;;;;;0.6;0.6;;;;;;;14.0;100.0;102460;;;;
2022/08/06 05:15:10;;;;;;;0.6;0.6;;;;;;;14.0;100.0;102460;;;;
2022/08/06 05:16:02;;;;;;;0.6;0.6;;;;;;;13.9;100.0;102460;;;;
2022/08/06 05:17:01;;;;;;;0.6;0.6;;;;;;;13.9;100.0;102460;;;;
2022/08/06 05:18:03;;;;;;;0.6;0.6;;;;;;;14.0;100.0;102460;;;;
2022/08/06 05:19:10;;;;;;;0.6;0.6;;;;;;;14.0;100.0;102460;;;;
2022/08/06 05:20:04;;;;;;;0.6;0.6;;;;;;;14.0;100.0;102460;;;;
2022/08/06 05:21:00;;;;;;;0.6;0.6;;;;;;;14.0;100.0;102460;;;;
2022/08/06 05:22:11;;;;;;;0.6;0.6;;;;;;;14.2;100.0;102460;;;;
2022/08/06 05:23:20;;;;;;;0.6;0.6;;;;;;;14.2;100.0;102460;;;;
2022/08/06 05:24:00;;;;;;;0.6;0.6;;;;;;;14.1;100.0;102470;;;;
2022/08/06 05:25:05;;;;;;;0.6;0.6;;;;;;;14.1;100.0;102470;;;;
2022/08/06 05:26:00;;;;;;;0.6;0.6;;;;;;;14.0;100.0;102470;;;;
2022/08/06 05:27:00;;;;;;;0.6;0.6;;;;;;;14.0;100.0;102470;;;;
2022/08/06 05:28:10;;;;;;;0.6;0.6;;;;;;;14.0;100.0;102470;;;;
2022/08/06 05:29:00;;;;;;;0.6;0.6;;;;;;;14.0;100.0;102470;;;;
2022/08/06 05:30:01;;;;;;;0.6;0.6;;;;;;;14.1;100.0;102480;;;;
2022/08/06 05:31:00;;;;;;;0.6;0.6;;;;;;;14.1;100.0;102480;;;;
2022/08/06 05:32:03;;;;;;;0.6;0.6;;;;;;;14.1;100.0;102470;;;;
2022/08/06 05:33:02;;;;;;;0.6;0.6;;;;;;;14.1;100.0;102470;;;;
2022/08/06 05:34:04;;;;;;;0.6;0.6;;;;;;;14.2;100.0;102480;;;;
2022/08/06 05:35:04;;;;;;;0.6;0.6;;;;;;;14.2;100.0;102480;;;;
2022/08/06 05:36:05;;;;;;;0.6;0.6;;;;;;;14.3;100.0;102480;;;;
2022/08/06 05:37:00;;;;;;;0.6;0.6;;;;;;;14.3;100.0;102480;;;;
2022/08/06 05:38:04;;;;;;;0.6;0.6;;;;;;;14.4;100.0;102480;;;;
2022/08/06 05:39:01;;;;;;;0.6;0.6;;;;;;;14.4;100.0;102480;;;;
2022/08/06 05:40:00;;;;;;;0.6;0.6;;;;;;;14.4;100.0;102490;;;;
2022/08/06 05:41:01;;;;;;;0.6;0.6;;;;;;;14.4;100.0;102490;;;;
2022/08/06 05:42:01;;;;;;;0.6;0.6;;;;;;;14.5;100.0;102490;;;;
2022/08/06 05:43:00;;;;;;;0.6;0.6;;;;;;;14.5;100.0;102490;;;;
2022/08/06 05:44:02;;;;;;;0.6;0.6;;;;;;;14.5;100.0;102490;;;;
2022/08/06 05:45:01;;;;;;;0.6;0.6;;;;;;;14.5;100.0;102490;;;;
2022/08/06 05:46:03;;;;;;;0.6;0.6;;;;;;;14.5;100.0;102500;;;;
2022/08/06 05:47:04;;;;;;;0.6;0.6;;;;;;;14.5;100.0;102500;;;;
2022/08/06 05:48:03;;;;;;;0.6;0.6;;;;;;;14.6;100.0;102500;;;;
2022/08/06 05:49:00;;;;;;;0.4;0.4;;;;;;;14.6;100.0;102500;;;;
2022/08/06 05:50:11;;;;;;;0.4;0.4;;;;;;;14.7;100.0;102500;;;;
2022/08/06 05:51:08;;;;;;;0.4;0.4;;;;;;;14.7;100.0;102500;;;;
2022/08/06 05:52:04;;;;;;;0.4;0.4;;;;;;;14.8;100.0;102500;;;;
2022/08/06 05:53:04;;;;;;;0.4;0.4;;;;;;;14.8;100.0;102500;;;;
2022/08/06 05:54:05;;;;;;;0.4;0.4;;;;;;;14.9;100.0;102500;;;;
2022/08/06 05:55:00;;;;;;;0.4;0.4;;;;;;;14.9;100.0;102500;;;;
2022/08/06 05:56:05;;;;;;;0.4;0.4;;;;;;;14.8;100.0;102500;;;;
2022/08/06 05:57:05;;;;;;;0.4;0.4;;;;;;;14.8;100.0;102500;;;;
2022/08/06 05:58:05;;;;;;;0.4;0.4;;;;;;;14.9;100.0;102490;;;;
2022/08/06 05:59:02;;;;;;;0.4;0.4;;;;;;;14.9;100.0;102490;;;;
2022/08/06 06:00:09;;;;;;;0.4;0.4;;;;;;;15.1;100.0;102490;;;;
2022/08/06 06:01:02;;;;;;;0.4;0.4;;;;;;;15.1;100.0;102490;;;;
2022/08/06 06:02:02;;;;;;;0.4;0.4;;;;;;;15.1;100.0;102500;;;;
2022/08/06 06:03:02;;;;;;;0.4;0.4;;;;;;;15.1;100.0;102500;;;;
2022/08/06 06:04:04;;;;;;;0.4;0.4;;;;;;;15.1;100.0;102500;;;;
2022/08/06 06:05:10;;;;;;;0.4;0.4;;;;;;;15.1;100.0;102500;;;;
2022/08/06 06:06:10;;;;;;;0.4;0.4;;;;;;;15.2;100.0;102500;;;;
2022/08/06 06:07:04;;;;;;;0.4;0.4;;;;;;;15.2;100.0;102500;;;;
2022/08/06 06:08:10;;;;;;;0.4;0.4;;;;;;;15.3;100.0;102500;;;;
2022/08/06 06:09:02;;;;;;;0.8;0.8;;;;;;;15.3;100.0;102500;;;;
2022/08/06 06:10:04;;;;;;;0.8;0.8;;;;;;;15.3;100.0;102500;;;;
2022/08/06 06:11:01;;;;;;;0.8;0.8;;;;;;;15.3;100.0;102500;;;;
2022/08/06 06:12:03;;;;;;;0.8;0.8;;;;;;;15.4;100.0;102500;;;;
2022/08/06 06:13:03;;;;;;;0.8;0.8;;;;;;;15.4;100.0;102500;;;;
2022/08/06 06:14:00;;;;;;;0.8;0.8;;;;;;;15.4;100.0;102500;;;;
2022/08/06 06:15:12;;;;;;;0.8;0.8;;;;;;;15.4;100.0;102500;;;;
2022/08/06 06:16:14;;;;;;;0.8;0.8;;;;;;;15.4;100.0;102500;;;;
2022/08/06 06:17:11;;;;;;;0.8;0.8;;;;;;;15.4;100.0;102500;;;;
2022/08/06 06:18:02;;;;;;;0.8;0.8;;;;;;;15.5;100.0;102500;;;;
2022/08/06 06:19:16;;;;;;;0.8;0.8;;;;;;;15.5;100.0;102500;;;;
2022/08/06 06:20:03;;;;;;;0.8;0.8;;;;;;;15.6;100.0;102500;;;;
2022/08/06 06:21:11;;;;;;;0.8;0.8;;;;;;;15.6;100.0;102500;;;;
2022/08/06 06:22:10;;;;;;;0.8;0.8;;;;;;;15.6;100.0;102500;;;;